Anthem Of The Seas — C6BI7 — position and weather

sailwx.info

Track history (hours):
 
Tides and Currents Weather Stations Pressure Air Temp Water Temp Dewpoint Dewpoint Depression Visibility Wind Speed Wind Dir Waves Ship Positions

Anthem Of The Seas

Last reported at 2020-Apr-06 15:30 UTC. Time now 2020-Apr-06 18:20 UTC.
Position N 26°14' W 079°29'.

Length 348 m; draft 8.8 m.

Type: Passenger vessel. MMSI: 311000274.

Date/timePositionNaut miles runAvg speedWind from/ knotsBaromVisibWave heightAir tempDewpointWater temp
2020-Apr-06 15:30N 26°14' W 079°29'4 2.5
2020-Apr-06 14:00N 26°16' W 079°32'7 3.0
2020-Apr-06 11:44N 26°10' W 079°30'2 1.0
2020-Apr-06 09:30N 26°08' W 079°28'6 2.6
2020-Apr-06 07:00N 26°14' W 079°31'2 1.3
2020-Apr-06 05:38N 26°12' W 079°30'1 1.1
2020-Apr-06 05:00N 26°12' W 079°30'1 1.9
2020-Apr-06 04:30N 26°11' W 079°30'2 1.9
2020-Apr-06 03:30N 26°09' W 079°29'3 2.5
2020-Apr-06 02:10N 26°06' W 079°29'5 4.0
2020-Apr-06 01:00N 26°02' W 079°32'37 7.3
2020-Apr-05 19:55N 25°46' W 080°10'0 0.0
2020-Apr-05 18:25N 25°46' W 080°10'0 0.0
2020-Apr-05 15:55N 25°46' W 080°10'0 0.0
2020-Apr-05 14:55N 25°46' W 080°10'0 0.0
2020-Apr-05 14:25N 25°46' W 080°10'0 0.0
2020-Apr-05 13:55N 25°46' W 080°10'0 0.0
2020-Apr-05 13:25N 25°46' W 080°10'0 0.0
2020-Apr-05 12:55N 25°46' W 080°10'0 0.0
2020-Apr-05 10:55N 25°46' W 080°10'0 0.0
2020-Apr-05 07:55N 25°46' W 080°10'0 0.0
2020-Apr-05 07:25N 25°46' W 080°10'0 0.0
2020-Apr-05 06:55N 25°46' W 080°10'0 0.0
2020-Apr-05 06:25N 25°46' W 080°10'0 0.0
2020-Apr-05 01:25N 25°46' W 080°10'0 0.0
2020-Apr-04 23:25N 25°46' W 080°10'0 0.0
2020-Apr-04 21:55N 25°46' W 080°10'0 0.0
2020-Apr-04 21:25N 25°46' W 080°10'0 0.0
2020-Apr-04 19:55N 25°46' W 080°10'0 0.0
2020-Apr-04 19:25N 25°46' W 080°10'0 0.0
2020-Apr-04 16:55N 25°46' W 080°10'0 0.0
2020-Apr-04 15:55N 25°46' W 080°10'0 0.0
2020-Apr-04 14:55N 25°46' W 080°10'0 0.0
2020-Apr-04 14:25N 25°46' W 080°10'0 0.0
2020-Apr-04 13:55N 25°46' W 080°10'0 0.0
2020-Apr-04 13:25N 25°46' W 080°10'1 0.6
2020-Apr-04 11:30N 25°46' W 080°08'611.3
2020-Apr-04 11:00N 25°47' W 080°02'510.2
2020-Apr-04 10:30N 25°49' W 079°57'713.2
2020-Apr-04 10:00N 25°53' W 079°51'20 8.1
2020-Apr-04 07:30N 26°11' W 079°41'27 7.9
2020-Apr-04 04:00N 26°35' W 079°26'2 1.6
2020-Apr-04 02:59N 26°33' W 079°26'1 1.4
2020-Apr-04 02:22N 26°33' W 079°26'2 1.6
2020-Apr-04 01:00N 26°30' W 079°26'6 1.5
2020-Apr-03 21:10N 26°25' W 079°26'2 2.2
2020-Apr-03 20:23N 26°23' W 079°27'1 1.0
2020-Apr-03 19:27N 26°22' W 079°27'4 1.3
2020-Apr-03 16:30N 26°20' W 079°30'2 2.2
2020-Apr-03 15:43N 26°18' W 079°30'0 1.9
2020-Apr-03 15:30N 26°17' W 079°30'4 1.2
2020-Apr-03 12:32N 26°14' W 079°30'1 0.9
2020-Apr-03 11:00N 26°13' W 079°29'1 1.2
2020-Apr-03 10:00N 26°11' W 079°29'1 0.7
2020-Apr-03 08:00N 26°10' W 079°28'0 0.6
2020-Apr-03 07:30N 26°10' W 079°28'1 0.7
2020-Apr-03 06:00N 26°09' W 079°28'0 0.8
2020-Apr-03 05:30N 26°09' W 079°29'0 0.8
2020-Apr-03 05:00N 26°08' W 079°29'1 0.9
2020-Apr-03 04:00N 26°07' W 079°29'1 1.0
2020-Apr-03 03:30N 26°07' W 079°30'1 0.9
2020-Apr-03 02:30N 26°06' W 079°30'14 2.7
2020-Apr-02 21:15N 26°20' W 079°27'1 3.3
2020-Apr-02 20:58N 26°19' W 079°28'6 2.6
2020-Apr-02 18:42N 26°15' W 079°32'1 3.1
2020-Apr-02 18:30N 26°14' W 079°32'4 1.1
2020-Apr-02 15:14N 26°11' W 079°31'2 0.9
2020-Apr-02 13:30N 26°09' W 079°31'2 0.2
2020-Apr-02 02:30N 26°07' W 079°30'2 3.9
2020-Apr-02 02:00N 26°09' W 079°31'0 0.1
2020-Apr-01 23:00N 26°09' W 079°31'0 0.3
2020-Apr-01 22:30N 26°09' W 079°31'3 2.7
2020-Apr-01 21:30N 26°09' W 079°28'3 6.3
2020-Apr-01 21:00N 26°10' W 079°25'3 1.4
2020-Apr-01 18:29N 26°07' W 079°23'1 1.0
2020-Apr-01 17:55N 26°07' W 079°24'1 1.5
2020-Apr-01 17:00N 26°06' W 079°26'1 1.8
2020-Apr-01 16:30N 26°06' W 079°26'3 0.4
2020-Apr-01 10:30N 26°06' W 079°29'4 1.7
2020-Apr-01 08:00N 26°07' W 079°25'1 2.2
2020-Apr-01 07:30N 26°07' W 079°26'52 5.5
2020-Mar-31 21:59N 26°60' W 079°24'65 4.4
2020-Mar-31 07:26N 27°50' W 078°40'0 0.2
2020-Mar-31 06:30N 27°50' W 078°40'1 0.3
2020-Mar-31 03:29N 27°50' W 078°40'1 0.3
2020-Mar-31 01:00N 27°50' W 078°40'0 0.3
2020-Mar-30 23:16N 27°50' W 078°39'2 0.3
2020-Mar-30 17:25N 27°51' W 078°38'22 7.0
2020-Mar-30 14:15N 27°37' W 078°19'82 5.2
2020-Mar-29 22:30N 26°28' W 079°08'12 9.8
2020-Mar-29 21:14N 26°19' W 078°59'  
Track history (hours):
 
Tides and Currents Weather Stations Pressure Air Temp Water Temp Dewpoint Dewpoint Depression Visibility Wind Speed Wind Dir Waves Ship Positions

Anthem Of The Seas

Last reported at 2020-Apr-06 15:30 UTC. Time now 2020-Apr-06 18:20 UTC.
Position N 26°14' W 079°29'.

Length 348 m; draft 8.8 m.

Type: Passenger vessel. MMSI: 311000274.

Date/timePositionNaut miles runAvg speedWind from/ knotsBaromVisibWave heightAir tempDewpointWater temp
2020-Apr-06 15:30N 26°14' W 079°29'4 2.5
2020-Apr-06 14:00N 26°16' W 079°32'7 3.0
2020-Apr-06 11:44N 26°10' W 079°30'2 1.0
2020-Apr-06 09:30N 26°08' W 079°28'6 2.6
2020-Apr-06 07:00N 26°14' W 079°31'2 1.3
2020-Apr-06 05:38N 26°12' W 079°30'1 1.1
2020-Apr-06 05:00N 26°12' W 079°30'1 1.9
2020-Apr-06 04:30N 26°11' W 079°30'2 1.9
2020-Apr-06 03:30N 26°09' W 079°29'3 2.5
2020-Apr-06 02:10N 26°06' W 079°29'5 4.0
2020-Apr-06 01:00N 26°02' W 079°32'37 7.3
2020-Apr-05 19:55N 25°46' W 080°10'0 0.0
2020-Apr-05 18:25N 25°46' W 080°10'0 0.0
2020-Apr-05 15:55N 25°46' W 080°10'0 0.0
2020-Apr-05 14:55N 25°46' W 080°10'0 0.0
2020-Apr-05 14:25N 25°46' W 080°10'0 0.0
2020-Apr-05 13:55N 25°46' W 080°10'0 0.0
2020-Apr-05 13:25N 25°46' W 080°10'0 0.0
2020-Apr-05 12:55N 25°46' W 080°10'0 0.0
2020-Apr-05 10:55N 25°46' W 080°10'0 0.0
2020-Apr-05 07:55N 25°46' W 080°10'0 0.0
2020-Apr-05 07:25N 25°46' W 080°10'0 0.0
2020-Apr-05 06:55N 25°46' W 080°10'0 0.0
2020-Apr-05 06:25N 25°46' W 080°10'0 0.0
2020-Apr-05 01:25N 25°46' W 080°10'0 0.0
2020-Apr-04 23:25N 25°46' W 080°10'0 0.0
2020-Apr-04 21:55N 25°46' W 080°10'0 0.0
2020-Apr-04 21:25N 25°46' W 080°10'0 0.0
2020-Apr-04 19:55N 25°46' W 080°10'0 0.0
2020-Apr-04 19:25N 25°46' W 080°10'0 0.0
2020-Apr-04 16:55N 25°46' W 080°10'0 0.0
2020-Apr-04 15:55N 25°46' W 080°10'0 0.0
2020-Apr-04 14:55N 25°46' W 080°10'0 0.0
2020-Apr-04 14:25N 25°46' W 080°10'0 0.0
2020-Apr-04 13:55N 25°46' W 080°10'0 0.0
2020-Apr-04 13:25N 25°46' W 080°10'1 0.6
2020-Apr-04 11:30N 25°46' W 080°08'611.3
2020-Apr-04 11:00N 25°47' W 080°02'510.2
2020-Apr-04 10:30N 25°49' W 079°57'713.2
2020-Apr-04 10:00N 25°53' W 079°51'20 8.1
2020-Apr-04 07:30N 26°11' W 079°41'27 7.9
2020-Apr-04 04:00N 26°35' W 079°26'2 1.6
2020-Apr-04 02:59N 26°33' W 079°26'1 1.4
2020-Apr-04 02:22N 26°33' W 079°26'2 1.6
2020-Apr-04 01:00N 26°30' W 079°26'6 1.5
2020-Apr-03 21:10N 26°25' W 079°26'2 2.2
2020-Apr-03 20:23N 26°23' W 079°27'1 1.0
2020-Apr-03 19:27N 26°22' W 079°27'4 1.3
2020-Apr-03 16:30N 26°20' W 079°30'2 2.2
2020-Apr-03 15:43N 26°18' W 079°30'0 1.9
2020-Apr-03 15:30N 26°17' W 079°30'4 1.2
2020-Apr-03 12:32N 26°14' W 079°30'1 0.9
2020-Apr-03 11:00N 26°13' W 079°29'1 1.2
2020-Apr-03 10:00N 26°11' W 079°29'1 0.7
2020-Apr-03 08:00N 26°10' W 079°28'0 0.6
2020-Apr-03 07:30N 26°10' W 079°28'1 0.7
2020-Apr-03 06:00N 26°09' W 079°28'0 0.8
2020-Apr-03 05:30N 26°09' W 079°29'0 0.8
2020-Apr-03 05:00N 26°08' W 079°29'1 0.9
2020-Apr-03 04:00N 26°07' W 079°29'1 1.0
2020-Apr-03 03:30N 26°07' W 079°30'1 0.9
2020-Apr-03 02:30N 26°06' W 079°30'14 2.7
2020-Apr-02 21:15N 26°20' W 079°27'1 3.3
2020-Apr-02 20:58N 26°19' W 079°28'6 2.6
2020-Apr-02 18:42N 26°15' W 079°32'1 3.1
2020-Apr-02 18:30N 26°14' W 079°32'4 1.1
2020-Apr-02 15:14N 26°11' W 079°31'2 0.9
2020-Apr-02 13:30N 26°09' W 079°31'2 0.2
2020-Apr-02 02:30N 26°07' W 079°30'2 3.9
2020-Apr-02 02:00N 26°09' W 079°31'0 0.1
2020-Apr-01 23:00N 26°09' W 079°31'0 0.3
2020-Apr-01 22:30N 26°09' W 079°31'3 2.7
2020-Apr-01 21:30N 26°09' W 079°28'3 6.3
2020-Apr-01 21:00N 26°10' W 079°25'3 1.4
2020-Apr-01 18:29N 26°07' W 079°23'1 1.0
2020-Apr-01 17:55N 26°07' W 079°24'1 1.5
2020-Apr-01 17:00N 26°06' W 079°26'1 1.8
2020-Apr-01 16:30N 26°06' W 079°26'3 0.4
2020-Apr-01 10:30N 26°06' W 079°29'4 1.7
2020-Apr-01 08:00N 26°07' W 079°25'1 2.2
2020-Apr-01 07:30N 26°07' W 079°26'52 5.5
2020-Mar-31 21:59N 26°60' W 079°24'65 4.4
2020-Mar-31 07:26N 27°50' W 078°40'0 0.2
2020-Mar-31 06:30N 27°50' W 078°40'1 0.3
2020-Mar-31 03:29N 27°50' W 078°40'1 0.3
2020-Mar-31 01:00N 27°50' W 078°40'0 0.3
2020-Mar-30 23:16N 27°50' W 078°39'2 0.3
2020-Mar-30 17:25N 27°51' W 078°38'22 7.0
2020-Mar-30 14:15N 27°37' W 078°19'82 5.2
2020-Mar-29 22:30N 26°28' W 079°08'12 9.8
2020-Mar-29 21:14N 26°19' W 078°59'  

Dump ship's entire track history